createdAt,value
2019-02-17T00:02:14.173Z,69.90
2019-02-17T00:04:43.751Z,70.03
2019-02-17T00:07:13.230Z,69.84
2019-02-17T00:09:42.746Z,69.79
2019-02-17T00:12:12.385Z,69.57
2019-02-17T00:14:41.868Z,69.43
2019-02-17T00:17:11.605Z,69.42
2019-02-17T00:19:41.032Z,69.79
2019-02-17T00:22:10.893Z,69.39
2019-02-17T00:24:40.527Z,69.29
2019-02-17T00:27:10.032Z,69.86
2019-02-17T00:29:39.654Z,70.02
2019-02-17T00:32:09.065Z,69.97
2019-02-17T00:34:38.480Z,69.72
2019-02-17T00:37:08.377Z,69.24
2019-02-17T00:39:37.862Z,68.95
2019-02-17T00:42:07.391Z,68.58
2019-02-17T00:44:37.026Z,68.20
2019-02-17T00:47:06.826Z,68.58
2019-02-17T00:49:36.410Z,68.51
2019-02-17T00:52:05.879Z,68.50
2019-02-17T00:54:35.418Z,68.53
2019-02-17T00:57:04.881Z,69.01
2019-02-17T00:59:34.531Z,69.02
2019-02-17T01:02:04.164Z,69.12
2019-02-17T01:04:33.596Z,69.26
2019-02-17T01:07:03.157Z,69.29
2019-02-17T01:09:32.758Z,69.79
2019-02-17T01:12:02.383Z,69.89
2019-02-17T01:14:31.811Z,69.75
2019-02-17T01:17:01.231Z,69.11
2019-02-17T01:19:30.987Z,69.14
2019-02-17T01:22:02.613Z,68.82
2019-02-17T01:24:32.157Z,68.92
2019-02-17T01:27:01.799Z,68.82
2019-02-17T01:29:31.260Z,68.84
2019-02-17T01:32:00.873Z,68.83
2019-02-17T01:34:30.393Z,68.98
2019-02-17T01:37:00.004Z,69.00
2019-02-17T01:39:29.489Z,69.25
2019-02-17T01:41:58.937Z,68.88
2019-02-17T01:44:28.522Z,68.99
2019-02-17T01:46:58.343Z,68.99
2019-02-17T01:49:27.773Z,69.42
2019-02-17T01:51:58.882Z,68.98
2019-02-17T01:54:30.029Z,69.11
2019-02-17T01:56:59.887Z,69.24
2019-02-17T01:59:30.868Z,69.22
2019-02-17T02:02:00.590Z,69.19
2019-02-17T02:04:30.097Z,69.35
2019-02-17T02:06:59.532Z,69.50
2019-02-17T02:09:29.280Z,69.44
2019-02-17T02:11:59.091Z,69.27
2019-02-17T02:14:28.642Z,69.39
2019-02-17T02:16:58.186Z,69.13
2019-02-17T02:19:27.663Z,69.22
2019-02-17T02:21:57.265Z,69.76
2019-02-17T02:24:26.689Z,70.19
2019-02-17T02:26:57.760Z,70.42
2019-02-17T02:29:27.609Z,70.34
2019-02-17T02:31:57.425Z,70.94
2019-02-17T02:34:27.028Z,71.23
2019-02-17T02:36:56.634Z,71.21
2019-02-17T02:39:26.240Z,71.44
2019-02-17T02:41:55.787Z,70.94
2019-02-17T02:44:25.240Z,70.93
2019-02-17T02:46:54.656Z,71.18
2019-02-17T02:49:24.273Z,70.90
2019-02-17T02:51:53.886Z,70.78
2019-02-17T02:54:23.619Z,70.92
2019-02-17T02:56:53.302Z,70.98
2019-02-17T02:59:23.062Z,71.03
2019-02-17T03:01:52.527Z,71.09
2019-02-17T03:04:22.120Z,71.64
2019-02-17T03:06:53.329Z,72.02
2019-02-17T03:09:22.729Z,72.43
2019-02-17T03:11:52.384Z,72.52
2019-02-17T03:14:21.983Z,72.36
2019-02-17T03:16:51.449Z,72.02
2019-02-17T03:19:20.858Z,71.88
2019-02-17T03:21:50.603Z,71.42
2019-02-17T03:24:20.111Z,70.97
2019-02-17T03:26:49.716Z,70.98
2019-02-17T03:29:19.187Z,71.27
2019-02-17T03:31:49.139Z,71.59
2019-02-17T03:34:18.580Z,71.31
2019-02-17T03:36:48.065Z,71.35
2019-02-17T03:39:17.579Z,71.25
2019-02-17T03:41:47.263Z,71.32
2019-02-17T03:44:16.751Z,71.15
2019-02-17T03:46:46.262Z,71.19
2019-02-17T03:49:15.996Z,71.32
2019-02-17T03:51:45.454Z,71.56
2019-02-17T03:54:15.066Z,71.54
2019-02-17T03:56:44.501Z,71.80
2019-02-17T03:59:14.204Z,71.78
2019-02-17T04:01:43.768Z,71.96
2019-02-17T04:04:13.268Z,71.93
2019-02-17T04:06:43.060Z,72.08
2019-02-17T04:09:13.155Z,72.37
2019-02-17T04:11:42.675Z,72.15
2019-02-17T04:14:12.288Z,72.06
2019-02-17T04:16:41.695Z,71.94
2019-02-17T04:19:11.503Z,72.19
2019-02-17T04:21:41.114Z,72.46
2019-02-17T04:24:10.562Z,72.52
2019-02-17T04:26:40.025Z,72.49
2019-02-17T04:29:10.289Z,72.69
2019-02-17T04:31:40.262Z,72.44
2019-02-17T04:34:09.809Z,72.66
2019-02-17T04:36:39.289Z,72.85
2019-02-17T04:39:09.032Z,72.66
2019-02-17T04:41:38.694Z,72.81
2019-02-17T04:44:08.150Z,73.07
2019-02-17T04:46:37.591Z,73.38
2019-02-17T04:49:07.385Z,73.31
2019-02-17T04:51:37.028Z,73.39
2019-02-17T04:54:06.833Z,73.41
2019-02-17T04:56:36.536Z,73.62
2019-02-17T04:59:05.944Z,73.83
2019-02-17T05:01:35.659Z,73.75
2019-02-17T05:04:05.137Z,73.61
2019-02-17T05:06:34.681Z,74.13
2019-02-17T05:09:04.967Z,74.12
2019-02-17T05:11:34.689Z,73.95
2019-02-17T05:14:04.481Z,73.45
2019-02-17T05:16:34.229Z,73.75
2019-02-17T05:19:03.764Z,73.49
2019-02-17T05:21:33.431Z,73.28
2019-02-17T05:24:03.043Z,73.40
2019-02-17T05:26:32.476Z,73.39
2019-02-17T05:29:02.046Z,73.41
2019-02-17T05:31:31.460Z,73.75
2019-02-17T05:34:01.218Z,74.10
2019-02-17T05:36:30.685Z,73.86
2019-02-17T05:39:00.341Z,73.53
2019-02-17T05:41:30.170Z,73.21
2019-02-17T05:43:59.810Z,72.89
2019-02-17T05:46:29.294Z,73.22
2019-02-17T05:49:00.382Z,73.31
2019-02-17T05:51:29.841Z,73.52
2019-02-17T05:53:59.376Z,73.64
2019-02-17T05:56:28.981Z,73.94
2019-02-17T05:58:58.622Z,74.15
2019-02-17T06:01:28.152Z,74.05
2019-02-17T06:03:57.714Z,74.09
2019-02-17T06:06:27.347Z,74.18
2019-02-17T06:08:56.987Z,74.24
2019-02-17T06:11:26.665Z,74.12
2019-02-17T06:13:56.067Z,73.98
2019-02-17T06:16:25.862Z,73.53
2019-02-17T06:18:55.656Z,73.54
2019-02-17T06:21:26.806Z,73.84
2019-02-17T06:23:56.295Z,73.63
2019-02-17T06:26:26.025Z,73.49
2019-02-17T06:28:55.843Z,73.44
2019-02-17T06:31:25.438Z,73.26
2019-02-17T06:33:54.944Z,73.18
2019-02-17T06:36:24.439Z,73.33
2019-02-17T06:38:54.276Z,73.34
2019-02-17T06:41:23.839Z,73.51
2019-02-17T06:43:53.358Z,73.31
2019-02-17T06:46:24.635Z,73.16
2019-02-17T06:48:54.410Z,73.07
2019-02-17T06:51:23.936Z,73.15
2019-02-17T06:53:53.667Z,73.19
2019-02-17T06:56:43.030Z,73.35
2019-02-17T06:59:12.767Z,73.06
2019-02-17T07:01:43.241Z,72.48
2019-02-17T07:04:12.722Z,72.50
2019-02-17T07:06:43.907Z,72.59
2019-02-17T07:09:13.390Z,73.22
2019-02-17T07:11:42.891Z,72.85
2019-02-17T07:14:12.537Z,72.59
2019-02-17T07:16:41.954Z,72.26
2019-02-17T07:19:11.398Z,72.39
2019-02-17T07:21:41.083Z,72.27
2019-02-17T07:24:10.587Z,72.30
2019-02-17T07:26:40.035Z,72.49
2019-02-17T07:29:09.779Z,72.35
2019-02-17T07:31:41.281Z,71.72
2019-02-17T07:34:10.950Z,71.77
2019-02-17T07:36:40.431Z,71.68
2019-02-17T07:39:10.038Z,72.01
2019-02-17T07:41:39.649Z,71.87
2019-02-17T07:44:09.108Z,71.83
2019-02-17T07:46:38.628Z,71.46
2019-02-17T07:49:08.094Z,71.43
2019-02-17T07:51:37.615Z,71.77
2019-02-17T07:54:07.179Z,72.10
2019-02-17T07:56:36.601Z,71.98
2019-02-17T07:59:06.161Z,71.98
2019-02-17T08:01:45.081Z,72.14
2019-02-17T08:04:07.071Z,71.83
2019-02-17T08:06:36.922Z,71.73
2019-02-17T08:09:06.957Z,71.55
2019-02-17T08:11:36.452Z,71.20
2019-02-17T08:14:06.045Z,71.39
2019-02-17T08:16:35.631Z,71.29
2019-02-17T08:19:05.214Z,71.50
2019-02-17T08:21:34.903Z,71.82
2019-02-17T08:24:04.441Z,70.72
2019-02-17T08:26:34.096Z,70.89
2019-02-17T08:29:03.626Z,70.95
2019-02-17T08:31:33.313Z,70.84
2019-02-17T08:34:02.952Z,72.08
2019-02-17T08:36:32.481Z,70.76
2019-02-17T08:39:01.933Z,70.75
2019-02-17T08:41:31.576Z,68.72
2019-02-17T08:44:01.051Z,65.25
2019-02-17T08:46:30.813Z,62.46
2019-02-17T08:49:00.232Z,60.76
2019-02-17T08:51:29.675Z,61.79
2019-02-17T08:53:59.209Z,61.23
2019-02-17T08:56:28.833Z,61.30
2019-02-17T08:58:58.439Z,60.19
2019-02-17T09:01:27.982Z,59.32
2019-02-17T09:03:57.650Z,60.49
2019-02-17T09:06:28.714Z,59.10
2019-02-17T09:08:58.317Z,59.83
2019-02-17T09:11:27.780Z,60.33
2019-02-17T09:13:57.289Z,57.93
2019-02-17T09:16:26.748Z,57.72
2019-02-17T09:18:56.279Z,57.68
2019-02-17T09:21:26.002Z,56.92
2019-02-17T09:23:55.480Z,55.87
2019-02-17T09:26:25.007Z,56.10
2019-02-17T09:28:54.423Z,57.50
2019-02-17T09:31:23.913Z,57.01
2019-02-17T09:33:53.337Z,56.01
2019-02-17T09:36:22.810Z,55.70
2019-02-17T09:38:52.453Z,55.19
2019-02-17T09:41:22.387Z,56.36
2019-02-17T09:43:52.082Z,55.88
2019-02-17T09:46:21.805Z,57.25
2019-02-17T09:48:51.215Z,58.54
2019-02-17T09:51:20.762Z,59.14
2019-02-17T09:53:50.683Z,59.50
2019-02-17T09:56:20.684Z,60.15
2019-02-17T09:58:50.139Z,60.46
2019-02-17T10:01:19.671Z,60.23
2019-02-17T10:03:49.190Z,61.28
2019-02-17T10:06:18.791Z,61.83
2019-02-17T10:08:48.359Z,62.35
2019-02-17T10:11:18.053Z,62.59
2019-02-17T10:13:49.181Z,62.65
2019-02-17T10:16:18.662Z,62.59
2019-02-17T10:18:48.175Z,63.25
2019-02-17T10:21:18.800Z,62.20
2019-02-17T10:23:48.291Z,62.33
2019-02-17T10:26:17.711Z,63.23
2019-02-17T10:28:47.170Z,62.72
2019-02-17T10:31:16.751Z,63.08
2019-02-17T10:33:46.432Z,63.19
2019-02-17T10:36:15.930Z,63.31
2019-02-17T10:38:45.622Z,63.41
2019-02-17T10:41:15.428Z,63.70
2019-02-17T10:43:44.985Z,63.49
2019-02-17T10:46:16.307Z,63.48
2019-02-17T10:48:45.805Z,62.98
2019-02-17T10:51:15.290Z,62.60
2019-02-17T10:53:44.816Z,62.59
2019-02-17T10:56:14.272Z,62.44
2019-02-17T10:58:43.685Z,63.06
2019-02-17T11:01:13.308Z,62.61
2019-02-17T11:03:46.080Z,62.55
2019-02-17T11:06:15.834Z,62.21
2019-02-17T11:08:45.313Z,62.01
2019-02-17T11:11:14.929Z,61.79
2019-02-17T11:13:44.356Z,62.08
2019-02-17T11:16:14.069Z,61.58
2019-02-17T11:18:43.791Z,61.76
2019-02-17T11:21:13.227Z,61.65
2019-02-17T11:23:42.759Z,61.45
2019-02-17T11:26:12.318Z,61.40
2019-02-17T11:28:41.747Z,61.17
2019-02-17T11:31:11.486Z,60.92
2019-02-17T11:33:41.038Z,61.13
2019-02-17T11:36:10.523Z,60.77
2019-02-17T11:38:40.287Z,60.97
2019-02-17T11:41:09.763Z,60.87
2019-02-17T11:43:39.370Z,60.82
2019-02-17T11:46:08.833Z,60.68
2019-02-17T11:48:38.431Z,60.55
2019-02-17T11:51:08.070Z,60.63
2019-02-17T11:53:39.199Z,60.48
2019-02-17T11:56:08.748Z,60.38
2019-02-17T11:58:38.299Z,60.00
2019-02-17T12:01:08.755Z,60.07
2019-02-17T12:03:38.279Z,60.47
2019-02-17T12:06:07.878Z,60.18
2019-02-17T12:08:37.539Z,60.41
2019-02-17T12:11:07.106Z,59.83
2019-02-17T12:13:36.669Z,60.00
2019-02-17T12:16:06.080Z,60.06
2019-02-17T12:18:35.690Z,60.48
2019-02-17T12:21:06.903Z,60.82
2019-02-17T12:23:40.911Z,60.36
2019-02-17T12:26:12.075Z,60.56
2019-02-17T12:28:43.412Z,61.13
2019-02-17T12:31:14.620Z,61.06
2019-02-17T12:33:44.404Z,61.21
2019-02-17T12:36:14.028Z,60.96
2019-02-17T12:38:43.810Z,60.95
2019-02-17T12:41:13.422Z,61.31
2019-02-17T12:43:43.044Z,61.13
2019-02-17T12:46:12.595Z,61.58
2019-02-17T12:48:42.255Z,61.35
2019-02-17T12:51:12.115Z,61.76
2019-02-17T12:53:41.547Z,61.72
2019-02-17T12:56:11.261Z,61.79
2019-02-17T12:58:41.202Z,61.77
2019-02-17T13:01:10.668Z,61.51
2019-02-17T13:03:40.360Z,61.76
2019-02-17T13:06:09.813Z,61.49
2019-02-17T13:08:39.488Z,61.85
2019-02-17T13:11:09.196Z,62.04
2019-02-17T13:13:38.869Z,61.73
2019-02-17T13:16:09.398Z,62.18
2019-02-17T13:18:38.880Z,61.87
2019-02-17T13:21:08.339Z,62.05
2019-02-17T13:23:37.959Z,62.55
2019-02-17T13:26:07.438Z,62.68
2019-02-17T13:28:36.994Z,62.80
2019-02-17T13:31:06.624Z,62.51
2019-02-17T13:33:39.122Z,61.98
2019-02-17T13:36:07.294Z,62.46
2019-02-17T13:38:36.777Z,62.17
2019-02-17T13:41:06.393Z,62.34
2019-02-17T13:43:35.801Z,62.37
2019-02-17T13:46:05.382Z,62.41
2019-02-17T13:48:34.888Z,62.24
2019-02-17T13:51:07.774Z,62.39
2019-02-17T13:53:37.305Z,63.06
2019-02-17T13:56:06.717Z,62.92
2019-02-17T13:58:36.222Z,63.09
2019-02-17T14:01:05.770Z,63.21
2019-02-17T14:03:35.243Z,63.26
2019-02-17T14:06:04.704Z,63.09
2019-02-17T14:08:34.283Z,63.28
2019-02-17T14:11:03.866Z,63.66
2019-02-17T14:13:33.388Z,64.16
2019-02-17T14:16:02.940Z,63.88
2019-02-17T14:18:32.450Z,63.77
2019-02-17T14:21:01.861Z,64.14
2019-02-17T14:23:31.651Z,64.36
2019-02-17T14:26:01.209Z,64.58
2019-02-17T14:28:31.057Z,64.61
2019-02-17T14:31:00.590Z,64.54
2019-02-17T14:33:30.102Z,64.16
2019-02-17T14:36:00.017Z,64.33
2019-02-17T14:38:29.502Z,64.14
2019-02-17T14:40:59.018Z,64.40
2019-02-17T14:43:28.485Z,64.75
2019-02-17T14:45:57.978Z,64.93
2019-02-17T14:48:27.633Z,65.01
2019-02-17T14:50:57.041Z,65.05
2019-02-17T14:53:26.518Z,64.90
2019-02-17T14:55:56.040Z,65.07
2019-02-17T14:58:25.583Z,64.95
2019-02-17T15:00:56.746Z,64.91
2019-02-17T15:03:26.383Z,65.12
2019-02-17T15:05:55.870Z,64.85
2019-02-17T15:08:25.355Z,65.02
2019-02-17T15:10:55.041Z,65.41
2019-02-17T15:13:24.909Z,65.55
2019-02-17T15:15:54.446Z,65.84
2019-02-17T15:18:24.208Z,65.94
2019-02-17T15:20:53.881Z,65.72
2019-02-17T15:23:23.508Z,65.80
2019-02-17T15:25:53.210Z,65.71
2019-02-17T15:28:22.928Z,66.08
2019-02-17T15:30:52.613Z,66.39
2019-02-17T15:33:22.119Z,66.04
2019-02-17T15:35:51.638Z,66.18
2019-02-17T15:38:21.154Z,66.48
2019-02-17T15:40:50.776Z,66.25
2019-02-17T15:43:20.454Z,66.36
2019-02-17T15:45:50.168Z,66.26
2019-02-17T15:48:20.299Z,66.46
2019-02-17T15:50:49.823Z,66.11
2019-02-17T15:53:19.289Z,66.67
2019-02-17T15:55:49.022Z,66.58
2019-02-17T15:58:18.734Z,66.62
2019-02-17T16:00:48.260Z,66.70
2019-02-17T16:03:17.779Z,66.88
2019-02-17T16:05:47.299Z,67.15
2019-02-17T16:08:16.843Z,67.24
2019-02-17T16:10:46.294Z,67.19
2019-02-17T16:13:15.779Z,66.85
2019-02-17T16:15:45.364Z,67.09
2019-02-17T16:18:14.875Z,67.19
2019-02-17T16:20:44.365Z,67.19
2019-02-17T16:23:13.854Z,67.48
2019-02-17T16:25:43.622Z,67.49
2019-02-17T16:28:13.329Z,67.47
2019-02-17T16:30:42.819Z,67.55
2019-02-17T16:33:12.302Z,67.36
2019-02-17T16:35:42.088Z,67.75
2019-02-17T16:38:11.609Z,67.75
2019-02-17T16:40:41.140Z,67.67
2019-02-17T16:43:13.035Z,67.64
2019-02-17T16:45:42.731Z,68.03
2019-02-17T16:48:12.410Z,68.25
2019-02-17T16:50:41.893Z,68.20
2019-02-17T16:53:11.635Z,68.20
2019-02-17T16:55:41.161Z,68.22
2019-02-17T16:58:10.635Z,68.27
2019-02-17T17:00:40.217Z,68.45
2019-02-17T17:03:09.737Z,68.36
2019-02-17T17:05:39.357Z,68.51
2019-02-17T17:08:09.076Z,68.25
2019-02-17T17:10:38.677Z,68.57
2019-02-17T17:13:09.964Z,68.93
2019-02-17T17:15:39.458Z,68.65
2019-02-17T17:18:09.023Z,68.46
2019-02-17T17:20:38.867Z,68.69
2019-02-17T17:23:08.279Z,68.87
2019-02-17T17:25:37.896Z,68.89
2019-02-17T17:28:07.472Z,69.01
2019-02-17T17:30:36.964Z,68.83
2019-02-17T17:33:06.396Z,69.08
2019-02-17T17:35:35.893Z,69.00
2019-02-17T17:38:05.347Z,69.12
2019-02-17T17:40:36.110Z,69.08
2019-02-17T17:43:05.687Z,69.29
2019-02-17T17:45:35.206Z,69.18
2019-02-17T17:48:06.147Z,69.38
2019-02-17T17:50:35.638Z,69.28
2019-02-17T17:53:05.549Z,69.31
2019-02-17T17:55:34.991Z,69.81
2019-02-17T17:58:04.743Z,69.28
2019-02-17T18:00:35.909Z,69.14
2019-02-17T18:03:07.411Z,69.57
2019-02-17T18:05:36.863Z,69.59
2019-02-17T18:08:06.653Z,69.66
2019-02-17T18:10:36.163Z,69.75
2019-02-17T18:13:05.786Z,69.65
2019-02-17T18:15:35.459Z,69.73
2019-02-17T18:18:06.816Z,69.65
2019-02-17T18:20:36.651Z,69.65
2019-02-17T18:23:06.368Z,69.48
2019-02-17T18:25:35.903Z,69.89
2019-02-17T18:28:05.548Z,70.05
2019-02-17T18:30:35.272Z,70.64
2019-02-17T18:33:04.877Z,70.36
2019-02-17T18:35:35.274Z,70.18
2019-02-17T18:38:05.057Z,70.16
2019-02-17T18:40:44.648Z,70.58
2019-02-17T18:43:07.780Z,70.15
2019-02-17T18:45:37.544Z,69.69
2019-02-17T18:48:08.575Z,69.83
2019-02-17T18:50:38.251Z,70.28
2019-02-17T18:53:07.979Z,70.94
2019-02-17T18:55:37.725Z,70.69
2019-02-17T18:58:07.378Z,70.67
2019-02-17T19:00:36.965Z,70.25
2019-02-17T19:03:06.662Z,70.12
2019-02-17T19:05:36.349Z,69.92
2019-02-17T19:08:06.451Z,70.29
2019-02-17T19:10:35.991Z,70.79
2019-02-17T19:13:05.471Z,70.80
2019-02-17T19:15:35.159Z,70.61
2019-02-17T19:18:04.699Z,70.24
2019-02-17T19:20:36.945Z,70.39
2019-02-17T19:23:06.789Z,70.55
2019-02-17T19:25:36.487Z,70.38
2019-02-17T19:28:05.906Z,70.46
2019-02-17T19:30:36.103Z,70.44
2019-02-17T19:33:05.607Z,70.66
2019-02-17T19:35:41.936Z,70.95
2019-02-17T19:38:06.605Z,70.95
2019-02-17T19:40:36.186Z,71.23
2019-02-17T19:43:05.752Z,71.08
2019-02-17T19:45:35.335Z,71.24
2019-02-17T19:48:04.831Z,71.00
2019-02-17T19:50:34.301Z,71.13
2019-02-17T19:53:03.783Z,72.11
2019-02-17T19:55:33.286Z,71.93
2019-02-17T19:58:03.035Z,71.85
2019-02-17T20:00:32.521Z,71.30
2019-02-17T20:03:06.974Z,71.17
2019-02-17T20:05:38.190Z,71.55
2019-02-17T20:08:07.684Z,71.64
2019-02-17T20:10:38.242Z,71.65
2019-02-17T20:13:08.514Z,72.13
2019-02-17T20:15:37.994Z,71.74
2019-02-17T20:18:07.428Z,71.97
2019-02-17T20:20:37.083Z,72.39
2019-02-17T20:23:06.721Z,72.65
2019-02-17T20:25:36.279Z,73.19
2019-02-17T20:28:05.714Z,73.07
2019-02-17T20:30:35.277Z,72.83
2019-02-17T20:33:04.720Z,73.04
2019-02-17T20:35:34.271Z,73.15
2019-02-17T20:38:03.920Z,73.06
2019-02-17T20:40:33.599Z,73.59
2019-02-17T20:43:03.563Z,74.24
2019-02-17T20:45:34.604Z,74.47
2019-02-17T20:48:04.210Z,73.97
2019-02-17T20:50:33.654Z,74.75
2019-02-17T20:53:03.295Z,74.63
2019-02-17T20:55:33.040Z,74.31
2019-02-17T20:58:02.541Z,74.73
2019-02-17T21:00:32.170Z,74.87
2019-02-17T21:03:02.176Z,75.02
2019-02-17T21:05:32.389Z,75.27
2019-02-17T21:08:02.149Z,75.15
2019-02-17T21:10:31.776Z,74.74
2019-02-17T21:13:01.317Z,75.01
2019-02-17T21:15:30.741Z,75.98
2019-02-17T21:18:00.475Z,76.35
2019-02-17T21:20:30.211Z,76.66
2019-02-17T21:23:00.166Z,76.22
2019-02-17T21:25:29.849Z,76.42
2019-02-17T21:27:59.465Z,76.30
2019-02-17T21:30:29.830Z,76.06
2019-02-17T21:32:59.361Z,76.33
2019-02-17T21:35:28.836Z,75.96
2019-02-17T21:37:58.287Z,75.96
2019-02-17T21:40:28.229Z,75.85
2019-02-17T21:42:58.034Z,75.75
2019-02-17T21:45:27.763Z,75.73
2019-02-17T21:47:59.163Z,76.29
2019-02-17T21:50:29.672Z,76.79
2019-02-17T21:52:59.209Z,77.84
2019-02-17T21:55:28.863Z,77.46
2019-02-17T21:57:58.351Z,76.93
2019-02-17T22:00:28.157Z,76.35
2019-02-17T22:02:57.601Z,76.88
2019-02-17T22:05:27.294Z,76.78
2019-02-17T22:07:57.000Z,77.30
2019-02-17T22:10:26.618Z,77.16
2019-02-17T22:12:56.132Z,76.71
2019-02-17T22:15:25.777Z,76.52
2019-02-17T22:17:55.297Z,76.25
2019-02-17T22:20:24.834Z,77.24
2019-02-17T22:22:54.525Z,76.62
2019-02-17T22:25:23.955Z,77.18
2019-02-17T22:27:53.759Z,77.80
2019-02-17T22:30:23.396Z,79.05
2019-02-17T22:32:52.935Z,79.31
2019-02-17T22:35:22.491Z,78.96
2019-02-17T22:37:52.083Z,78.99
2019-02-17T22:40:21.496Z,79.22
2019-02-17T22:42:51.092Z,79.38
2019-02-17T22:45:20.748Z,78.88
2019-02-17T22:47:50.531Z,78.17
2019-02-17T22:50:20.020Z,77.75
2019-02-17T22:52:49.495Z,77.67
2019-02-17T22:55:18.941Z,77.24
2019-02-17T22:57:48.403Z,77.46
2019-02-17T23:00:26.411Z,76.82
2019-02-17T23:02:55.837Z,77.21
2019-02-17T23:05:25.335Z,77.40
2019-02-17T23:07:55.031Z,77.55
2019-02-17T23:10:24.675Z,77.28
2019-02-17T23:12:54.104Z,76.90
2019-02-17T23:15:23.628Z,77.03
2019-02-17T23:17:53.631Z,78.47
2019-02-17T23:20:23.497Z,78.72
2019-02-17T23:22:54.781Z,79.14
2019-02-17T23:25:24.504Z,78.89
2019-02-17T23:27:54.491Z,78.38
2019-02-17T23:30:23.961Z,78.33
2019-02-17T23:32:53.500Z,78.33
2019-02-17T23:35:23.107Z,78.04
2019-02-17T23:37:52.815Z,77.57
2019-02-17T23:40:22.434Z,77.82
2019-02-17T23:42:51.886Z,77.67
2019-02-17T23:45:21.297Z,78.63
2019-02-17T23:47:52.344Z,80.09
2019-02-17T23:50:21.834Z,81.10
2019-02-17T23:52:51.283Z,80.54
2019-02-17T23:55:20.916Z,78.99
2019-02-17T23:57:50.621Z,79.08
